createdAt,value
2023-03-22T00:03:04.501Z,69.5
2023-03-22T00:13:04.562Z,67
2023-03-22T00:23:04.451Z,70
2023-03-22T00:33:05.752Z,67.5
2023-03-22T00:43:04.378Z,68
2023-03-22T00:53:04.519Z,67
2023-03-22T01:03:04.597Z,70.5
2023-03-22T01:13:04.512Z,68
2023-03-22T01:23:04.587Z,74.5
2023-03-22T01:33:04.497Z,69.5
2023-03-22T01:43:04.579Z,80
2023-03-22T01:53:04.505Z,75.5
2023-03-22T02:03:04.638Z,76
2023-03-22T02:13:04.495Z,77.5
2023-03-22T02:23:04.568Z,82
2023-03-22T02:33:04.700Z,77.5
2023-03-22T02:43:04.575Z,78
2023-03-22T02:53:04.692Z,79.5
2023-03-22T03:03:04.557Z,76
2023-03-22T03:13:04.682Z,85
2023-03-22T03:23:04.561Z,81.5
2023-03-22T03:33:04.693Z,77
2023-03-22T03:43:04.583Z,82.5
2023-03-22T03:53:04.697Z,82
2023-03-22T04:03:04.750Z,80
2023-03-22T04:13:04.678Z,75.5
2023-03-22T04:23:04.770Z,70
2023-03-22T04:33:04.693Z,69
2023-03-22T04:43:04.757Z,65.5
2023-03-22T04:53:04.676Z,66
2023-03-22T05:03:04.771Z,63
2023-03-22T05:13:04.880Z,64
2023-03-22T05:23:04.748Z,63
2023-03-22T05:33:04.883Z,62.5
2023-03-22T05:43:04.731Z,57
2023-03-22T05:53:04.858Z,56.5
2023-03-22T06:03:04.762Z,56.5
2023-03-22T06:13:04.963Z,57
2023-03-22T06:23:04.740Z,58.5
2023-03-22T06:33:04.846Z,58
2023-03-22T06:43:07.067Z,58.5
2023-03-22T06:53:04.838Z,55
2023-03-22T07:03:04.921Z,53
2023-03-22T07:13:04.908Z,50.5
2023-03-22T07:23:04.931Z,48.5
2023-03-22T07:33:04.857Z,50
2023-03-22T07:43:04.938Z,54
2023-03-22T07:53:04.861Z,53.5
2023-03-22T08:03:04.955Z,54
2023-03-22T08:13:05.046Z,51
2023-03-22T08:23:04.922Z,49
2023-03-22T08:33:05.052Z,50
2023-03-22T08:43:04.929Z,48.5
2023-03-22T08:53:05.050Z,48.5
2023-03-22T09:03:04.917Z,48.5
2023-03-22T09:13:05.032Z,47
2023-03-22T09:23:04.913Z,46.5
2023-03-22T09:33:05.055Z,48
2023-03-22T09:43:04.933Z,46.5
2023-03-22T09:53:05.052Z,48
2023-03-22T10:03:05.123Z,50
2023-03-22T10:13:05.060Z,52
2023-03-22T10:23:05.131Z,52
2023-03-22T10:33:05.092Z,52
2023-03-22T10:43:05.117Z,52
2023-03-22T10:53:05.050Z,50.5
2023-03-22T11:03:05.197Z,50.5
2023-03-22T11:13:05.076Z,50.5
2023-03-22T11:23:05.160Z,51.5
2023-03-22T11:33:05.143Z,50.5
2023-03-22T11:43:05.163Z,50.5
2023-03-22T11:53:05.094Z,50.5
2023-03-22T12:03:05.240Z,50
2023-03-22T12:13:05.242Z,49.5
2023-03-22T12:23:05.201Z,50
2023-03-22T12:33:05.220Z,50
2023-03-22T12:43:05.176Z,50
2023-03-22T12:53:05.319Z,50
2023-03-22T13:03:05.259Z,49
2023-03-22T13:13:05.442Z,50
2023-03-22T13:23:05.208Z,50
2023-03-22T13:33:05.320Z,50
2023-03-22T13:43:05.184Z,50
2023-03-22T13:53:05.318Z,50
2023-03-22T14:03:05.345Z,50
2023-03-22T14:13:05.321Z,50
2023-03-22T14:53:05.289Z,50
2023-03-22T15:03:05.427Z,50
2023-03-22T15:13:05.279Z,50
2023-03-22T15:23:05.362Z,50
2023-03-22T15:33:05.481Z,50
2023-03-22T15:43:05.369Z,50
2023-03-22T15:53:05.465Z,50
2023-03-22T16:03:05.350Z,50
2023-03-22T16:13:05.574Z,50
2023-03-22T16:23:06.262Z,50
2023-03-22T16:33:05.554Z,50
2023-03-22T16:43:05.409Z,50
2023-03-22T16:53:05.413Z,52
2023-03-22T17:03:05.641Z,52
2023-03-22T17:13:05.605Z,52
2023-03-22T17:23:05.522Z,52
2023-03-22T17:33:09.625Z,52
2023-03-22T17:43:05.466Z,52
2023-03-22T18:03:05.506Z,52
2023-03-22T18:13:05.565Z,52
2023-03-22T18:23:06.119Z,52
2023-03-22T18:33:06.192Z,52
2023-03-22T18:43:05.668Z,52
2023-03-22T18:53:16.147Z,52
2023-03-22T19:03:06.928Z,52
2023-03-22T19:13:05.555Z,52
2023-03-22T19:23:05.637Z,59
2023-03-22T19:33:27.507Z,63
2023-03-22T19:43:05.652Z,62.5
2023-03-22T19:53:31.566Z,62
2023-03-22T20:03:05.672Z,59.5
2023-03-22T20:13:05.581Z,62
2023-03-22T20:23:05.671Z,62
2023-03-22T20:33:05.784Z,60.5
2023-03-22T20:43:05.671Z,62
2023-03-22T20:53:06.319Z,64
2023-03-22T21:03:05.663Z,61
2023-03-22T21:13:05.796Z,61.5
2023-03-22T21:23:05.682Z,64.5
2023-03-22T21:33:05.795Z,74
2023-03-22T21:43:05.691Z,79.5
2023-03-22T21:53:05.713Z,73
2023-03-22T22:03:05.669Z,80.5
2023-03-22T22:13:05.800Z,72
2023-03-22T22:23:05.874Z,71.5
2023-03-22T22:33:05.862Z,65.5
2023-03-22T22:43:05.860Z,68
2023-03-22T22:53:05.790Z,65.5
2023-03-22T23:03:05.816Z,61.5
2023-03-22T23:13:05.878Z,61
2023-03-22T23:23:05.741Z,62.5
2023-03-22T23:33:05.862Z,59
2023-03-22T23:43:05.932Z,58.5
2023-03-22T23:53:05.850Z,60
